Time;durP1;ratioP1;P1;durP2;ratioP2;P2;SDS_P1;SDS_P2;PMS_P1;PMS_P2;Temp;Humidity;BMP_temperature;BMP_pressure;BME280_temperature;BME280_humidity;BME280_pressure;Samples;Min_cycle;Max_cycle;Signal;HPM_P1;HPM_P2
2023/07/25 00:00:12;;;;;;;1.97;1.47;;;18.50;97.50;;;;;;5020625;28;20467;-16
2023/07/25 00:02:37;;;;;;;2.45;1.50;;;18.50;97.70;;;;;;5028912;28;20119;-16
2023/07/25 00:05:04;;;;;;;4.03;1.60;;;18.50;97.70;;;;;;5050517;28;20082;-16
2023/07/25 00:07:30;;;;;;;2.17;1.40;;;18.50;97.60;;;;;;5048887;28;20077;-16
2023/07/25 00:09:56;;;;;;;3.95;1.80;;;18.50;97.70;;;;;;5050421;28;20032;-16
2023/07/25 00:12:23;;;;;;;2.40;1.52;;;18.50;97.70;;;;;;5033039;28;20065;-16
2023/07/25 00:14:49;;;;;;;3.35;1.60;;;18.40;97.80;;;;;;5039467;28;20033;-16
2023/07/25 00:17:14;;;;;;;2.33;1.57;;;18.40;97.70;;;;;;5041935;28;20624;-16
2023/07/25 00:19:40;;;;;;;2.20;1.60;;;18.40;97.80;;;;;;5052560;28;20033;-16
2023/07/25 00:22:06;;;;;;;2.93;1.60;;;18.40;97.80;;;;;;5050686;28;20036;-16
2023/07/25 00:24:32;;;;;;;2.95;1.48;;;18.40;97.90;;;;;;5037194;28;20146;-16
2023/07/25 00:26:57;;;;;;;2.33;1.60;;;18.40;97.90;;;;;;5045265;28;20039;-16
2023/07/25 00:29:23;;;;;;;2.00;1.30;;;18.40;98.00;;;;;;5036690;28;20224;-16
2023/07/25 00:31:49;;;;;;;2.75;1.50;;;18.40;98.00;;;;;;5030670;28;20527;-16
2023/07/25 00:34:14;;;;;;;3.20;1.50;;;18.30;98.00;;;;;;5039048;28;20519;-18
2023/07/25 00:36:40;;;;;;;2.87;1.70;;;18.40;98.00;;;;;;5052548;28;20032;-16
2023/07/25 00:39:06;;;;;;;2.70;1.60;;;18.40;98.00;;;;;;5047920;28;20294;-16
2023/07/25 00:41:32;;;;;;;2.35;1.65;;;18.40;98.10;;;;;;5045835;28;20029;-16
2023/07/25 00:43:57;;;;;;;3.63;1.90;;;18.30;98.10;;;;;;5023682;28;20029;-16
2023/07/25 00:46:24;;;;;;;2.30;1.60;;;18.30;98.10;;;;;;5024703;28;20245;-16
2023/07/25 00:48:50;;;;;;;1.80;1.40;;;18.40;98.10;;;;;;5041092;28;20087;-16
2023/07/25 00:51:16;;;;;;;4.38;1.58;;;18.30;98.10;;;;;;5043800;28;20035;-16
2023/07/25 00:53:42;;;;;;;2.50;1.70;;;18.30;98.10;;;;;;5049164;28;20024;-16
2023/07/25 00:56:10;;;;;;;3.45;1.50;;;18.30;98.10;;;;;;5049319;28;20028;-16
2023/07/25 00:58:36;;;;;;;2.67;1.70;;;18.30;98.10;;;;;;5035140;28;20113;-16
2023/07/25 01:01:06;;;;;;;2.63;1.73;;;18.30;98.20;;;;;;5022296;28;20112;-16
2023/07/25 01:03:37;;;;;;;2.47;1.70;;;18.30;98.00;;;;;;5031704;28;20110;-16
2023/07/25 01:06:04;;;;;;;2.85;1.60;;;18.30;98.10;;;;;;5039992;28;20012;-16
2023/07/25 01:08:30;;;;;;;2.85;1.70;;;18.30;98.20;;;;;;5049714;28;20041;-16
2023/07/25 01:10:56;;;;;;;2.83;1.65;;;18.30;98.30;;;;;;5050605;28;20057;-17
2023/07/25 01:13:22;;;;;;;3.73;1.80;;;18.30;98.40;;;;;;5042545;28;20634;-16
2023/07/25 01:15:53;;;;;;;2.85;1.77;;;18.30;98.40;;;;;;5051585;28;20052;-16
2023/07/25 01:18:19;;;;;;;2.13;1.65;;;18.30;98.10;;;;;;5020940;28;20125;-16
2023/07/25 01:20:47;;;;;;;3.13;1.80;;;18.30;98.30;;;;;;5039882;28;20559;-16
2023/07/25 01:23:14;;;;;;;4.57;1.80;;;18.30;98.30;;;;;;5048179;28;20032;-16
2023/07/25 01:25:39;;;;;;;2.53;1.42;;;18.30;98.30;;;;;;5054512;28;20029;-16
2023/07/25 01:28:05;;;;;;;2.72;1.60;;;18.30;98.30;;;;;;5048968;28;20078;-16
2023/07/25 01:30:31;;;;;;;4.23;1.70;;;18.30;98.20;;;;;;5039537;28;20168;-16
2023/07/25 01:32:57;;;;;;;3.45;1.70;;;18.30;98.20;;;;;;5048598;28;20478;-16
2023/07/25 01:35:23;;;;;;;2.88;1.80;;;18.20;98.20;;;;;;5012739;28;20216;-16
2023/07/25 01:37:49;;;;;;;2.90;1.90;;;18.20;98.30;;;;;;5051020;28;20068;-16
2023/07/25 01:40:14;;;;;;;2.72;1.70;;;18.20;98.30;;;;;;5034443;28;20024;-16
2023/07/25 01:42:40;;;;;;;3.53;1.60;;;18.20;98.30;;;;;;5049430;28;20049;-17
2023/07/25 01:45:06;;;;;;;2.47;1.75;;;18.20;98.30;;;;;;5042646;28;20115;-16
2023/07/25 01:47:33;;;;;;;3.67;1.85;;;18.20;98.30;;;;;;5047432;28;20102;-16
2023/07/25 01:49:58;;;;;;;2.33;1.60;;;18.20;98.30;;;;;;5026667;28;20040;-16
2023/07/25 01:52:24;;;;;;;2.73;1.50;;;18.20;98.30;;;;;;5048406;28;20123;-16
2023/07/25 01:54:54;;;;;;;1.92;1.50;;;18.20;98.30;;;;;;5048745;28;20056;-16
2023/07/25 01:57:19;;;;;;;3.60;1.70;;;18.20;98.20;;;;;;5046263;28;20635;-16
2023/07/25 01:59:45;;;;;;;2.20;1.70;;;18.10;98.30;;;;;;5051169;28;20048;-16
2023/07/25 02:02:11;;;;;;;3.80;1.90;;;18.10;98.30;;;;;;5038708;28;20029;-16
2023/07/25 02:04:36;;;;;;;3.45;1.60;;;18.20;98.20;;;;;;5023056;28;20043;-16
2023/07/25 02:07:02;;;;;;;2.10;1.43;;;18.20;98.10;;;;;;5051921;28;20040;-16
2023/07/25 02:09:28;;;;;;;4.60;1.77;;;18.10;98.00;;;;;;5046116;28;20048;-16
2023/07/25 02:11:53;;;;;;;2.23;1.70;;;18.10;97.90;;;;;;5051221;28;20039;-17
2023/07/25 02:14:19;;;;;;;2.90;1.50;;;18.10;97.80;;;;;;5047557;28;20670;-16
2023/07/25 02:16:45;;;;;;;3.03;1.80;;;18.00;97.70;;;;;;5037617;28;20017;-16
2023/07/25 02:19:10;;;;;;;2.50;1.60;;;18.00;97.60;;;;;;5027396;28;20287;-16
2023/07/25 02:21:36;;;;;;;3.75;1.50;;;17.90;97.50;;;;;;5041807;28;20029;-16
2023/07/25 02:24:02;;;;;;;2.87;1.50;;;17.90;97.50;;;;;;5049837;28;20031;-16
2023/07/25 02:26:27;;;;;;;5.40;1.70;;;17.80;97.50;;;;;;5047647;28;20229;-16
2023/07/25 02:28:53;;;;;;;2.63;1.50;;;17.80;97.50;;;;;;5050200;28;20464;-16
2023/07/25 02:31:19;;;;;;;2.97;1.65;;;17.80;97.60;;;;;;5043742;28;20248;-16
2023/07/25 02:33:44;;;;;;;3.47;1.47;;;17.70;97.60;;;;;;5039153;28;20032;-16
2023/07/25 02:36:10;;;;;;;2.90;1.70;;;17.70;98.00;;;;;;5020647;28;20021;-16
2023/07/25 02:38:36;;;;;;;2.43;1.53;;;17.70;97.80;;;;;;5046439;28;20059;-16
2023/07/25 02:41:02;;;;;;;3.70;1.48;;;17.70;97.90;;;;;;5047454;28;20028;-16
2023/07/25 02:43:28;;;;;;;1.67;1.43;;;17.70;98.00;;;;;;5051910;28;20156;-16
2023/07/25 02:45:53;;;;;;;2.85;1.50;;;17.60;98.10;;;;;;5046169;28;20048;-16
2023/07/25 02:48:20;;;;;;;2.07;1.50;;;17.60;98.10;;;;;;5033126;28;20025;-16
2023/07/25 02:50:45;;;;;;;2.33;1.60;;;17.60;98.20;;;;;;5052799;28;20823;-16
2023/07/25 02:53:11;;;;;;;2.55;1.77;;;17.60;98.20;;;;;;5020807;28;20045;-16
2023/07/25 02:55:38;;;;;;;2.67;1.40;;;17.60;98.30;;;;;;5043981;28;20040;-16
2023/07/25 02:58:04;;;;;;;3.20;1.60;;;17.60;98.30;;;;;;5061394;28;20040;-16
2023/07/25 03:00:29;;;;;;;3.33;1.67;;;17.60;98.40;;;;;;5046520;28;20040;-16
2023/07/25 03:02:56;;;;;;;3.30;1.63;;;17.60;98.50;;;;;;5053304;28;20396;-16
2023/07/25 03:05:22;;;;;;;3.83;1.70;;;17.70;98.50;;;;;;5021710;28;20552;-16
2023/07/25 03:07:47;;;;;;;2.90;1.70;;;17.70;98.60;;;;;;5022614;28;20028;-16
2023/07/25 03:10:13;;;;;;;2.75;1.70;;;17.70;98.60;;;;;;5048077;28;20036;-16
2023/07/25 03:12:39;;;;;;;3.17;1.60;;;17.70;98.60;;;;;;5049487;28;20070;-16
2023/07/25 03:15:05;;;;;;;2.60;1.50;;;17.70;98.60;;;;;;5047584;28;20028;-16
2023/07/25 03:17:31;;;;;;;2.42;1.63;;;17.60;98.50;;;;;;5049561;28;20660;-16
2023/07/25 03:19:57;;;;;;;2.57;1.43;;;17.70;98.50;;;;;;5037858;28;20091;-16
2023/07/25 03:22:23;;;;;;;2.67;1.63;;;17.60;98.50;;;;;;5023738;28;21348;-16
2023/07/25 03:24:49;;;;;;;3.10;1.60;;;17.60;98.50;;;;;;5051279;28;20029;-16
2023/07/25 03:27:18;;;;;;;2.93;1.60;;;17.60;98.50;;;;;;5045516;28;20773;-16
2023/07/25 03:29:44;;;;;;;3.00;1.60;;;17.70;98.30;;;;;;5052445;28;20040;-16
2023/07/25 03:32:10;;;;;;;2.60;1.40;;;17.70;98.50;;;;;;5043352;28;20021;-16
2023/07/25 03:34:36;;;;;;;4.13;1.80;;;17.70;98.60;;;;;;5040705;28;20024;-16
2023/07/25 03:37:01;;;;;;;3.50;1.80;;;17.70;98.60;;;;;;5050548;28;20060;-18
2023/07/25 03:39:27;;;;;;;3.57;1.80;;;17.60;98.60;;;;;;5023162;28;20039;-16
2023/07/25 03:41:53;;;;;;;3.45;1.73;;;17.60;98.60;;;;;;5049646;28;20024;-16
2023/07/25 03:44:20;;;;;;;5.10;1.90;;;17.70;98.60;;;;;;5046097;28;20218;-15
2023/07/25 03:46:46;;;;;;;4.25;1.70;;;17.70;98.60;;;;;;5050737;28;20026;-16
2023/07/25 03:49:12;;;;;;;2.80;1.63;;;17.60;98.60;;;;;;5036568;28;20485;-16
2023/07/25 03:51:38;;;;;;;4.10;1.50;;;17.60;98.60;;;;;;5054010;28;20064;-16
2023/07/25 03:54:05;;;;;;;1.90;1.63;;;17.60;98.50;;;;;;5019335;28;20750;-17
2023/07/25 03:56:31;;;;;;;4.07;1.67;;;17.60;98.50;;;;;;5046613;28;20492;-16
2023/07/25 03:58:56;;;;;;;2.38;1.58;;;17.60;98.40;;;;;;5055330;28;20032;-17
2023/07/25 04:01:22;;;;;;;2.47;1.40;;;17.60;98.50;;;;;;5043687;28;20105;-16
2023/07/25 04:03:48;;;;;;;2.40;1.50;;;17.50;98.50;;;;;;5047112;28;20698;-16
2023/07/25 04:06:14;;;;;;;2.87;1.60;;;17.50;98.50;;;;;;5032916;28;20037;-19
2023/07/25 04:08:39;;;;;;;5.23;1.60;;;17.50;98.50;;;;;;5015858;28;20278;-16
2023/07/25 04:11:05;;;;;;;2.28;1.58;;;17.50;98.60;;;;;;5048078;28;20029;-16
2023/07/25 04:13:31;;;;;;;2.43;1.67;;;17.50;98.60;;;;;;5051562;28;20103;-16
2023/07/25 04:15:57;;;;;;;3.78;1.55;;;17.50;98.60;;;;;;5048107;28;20347;-16
2023/07/25 04:18:23;;;;;;;2.67;1.60;;;17.50;99.00;;;;;;5047497;28;20619;-16
2023/07/25 04:20:48;;;;;;;2.90;1.50;;;17.50;98.70;;;;;;5034368;28;20048;-16
2023/07/25 04:23:15;;;;;;;3.85;1.67;;;17.50;98.80;;;;;;5052959;28;20025;-17
2023/07/25 04:25:41;;;;;;;3.45;1.70;;;17.50;98.90;;;;;;5020806;28;20918;-16
2023/07/25 04:28:07;;;;;;;3.73;1.50;;;17.50;98.90;;;;;;5049104;28;20067;-16
2023/07/25 04:30:33;;;;;;;6.38;1.90;;;17.50;99.00;;;;;;5044620;28;20029;-16
2023/07/25 04:32:58;;;;;;;3.47;1.80;;;17.50;99.10;;;;;;5061310;28;20029;-16
2023/07/25 04:35:24;;;;;;;2.22;1.60;;;17.50;99.10;;;;;;5036681;28;20073;-16
2023/07/25 04:37:50;;;;;;;3.43;1.77;;;17.50;99.10;;;;;;5032070;28;20405;-16
2023/07/25 04:40:16;;;;;;;3.70;1.70;;;17.50;99.20;;;;;;5017098;28;20465;-16
2023/07/25 04:42:41;;;;;;;4.90;2.00;;;17.50;99.30;;;;;;5048662;28;20039;-15
2023/07/25 04:45:08;;;;;;;2.78;1.77;;;17.50;99.30;;;;;;5050536;28;20434;-16
2023/07/25 04:47:33;;;;;;;3.13;1.80;;;17.50;99.30;;;;;;5031063;28;20420;-16
2023/07/25 04:49:59;;;;;;;3.07;1.77;;;17.50;99.40;;;;;;5051455;28;20034;-16
2023/07/25 04:52:25;;;;;;;2.15;1.55;;;17.60;99.70;;;;;;5033510;28;20122;-16
2023/07/25 04:54:52;;;;;;;3.67;1.83;;;17.60;99.50;;;;;;5025888;28;20378;-16
2023/07/25 04:57:18;;;;;;;2.25;1.50;;;17.70;99.50;;;;;;5039558;28;20032;-16
2023/07/25 04:59:43;;;;;;;2.78;1.70;;;17.70;99.50;;;;;;5048875;28;20090;-16
2023/07/25 05:02:09;;;;;;;4.00;2.10;;;17.60;99.50;;;;;;5044583;28;20832;-16
2023/07/25 05:04:35;;;;;;;2.42;1.55;;;17.70;99.40;;;;;;5011489;28;20293;-16
2023/07/25 05:07:00;;;;;;;1.97;1.43;;;17.70;99.40;;;;;;5040247;28;20024;-16
2023/07/25 05:09:26;;;;;;;2.50;1.60;;;17.70;99.40;;;;;;5033950;28;20025;-16
2023/07/25 05:11:52;;;;;;;4.47;1.70;;;17.70;99.30;;;;;;5021408;28;20763;-16
2023/07/25 05:14:18;;;;;;;2.85;1.73;;;17.70;99.30;;;;;;5039209;28;20036;-16
2023/07/25 05:16:44;;;;;;;3.10;1.67;;;17.70;99.30;;;;;;5052857;28;20024;-16
2023/07/25 05:19:09;;;;;;;3.00;1.77;;;17.70;99.30;;;;;;5055138;28;20119;-19
2023/07/25 05:21:35;;;;;;;3.50;1.70;;;17.70;99.30;;;;;;5037575;28;20211;-16
2023/07/25 05:24:01;;;;;;;4.07;1.75;;;17.70;99.20;;;;;;5050853;28;20040;-16
2023/07/25 05:26:27;;;;;;;2.58;1.70;;;17.70;99.20;;;;;;5005841;28;20253;-16
2023/07/25 05:28:52;;;;;;;3.67;1.77;;;17.70;99.30;;;;;;5040978;28;20147;-16
2023/07/25 05:31:18;;;;;;;3.33;1.70;;;17.70;99.30;;;;;;5048390;28;20028;-16
2023/07/25 05:33:44;;;;;;;2.67;1.80;;;17.70;99.30;;;;;;5039468;28;20136;-16
2023/07/25 05:36:09;;;;;;;4.53;1.92;;;17.70;99.40;;;;;;5041303;28;20275;-16
2023/07/25 05:38:35;;;;;;;2.80;1.70;;;17.70;99.40;;;;;;5043203;28;20589;-16
2023/07/25 05:41:02;;;;;;;2.45;1.80;;;17.70;99.50;;;;;;5037535;28;21673;-16
2023/07/25 05:43:28;;;;;;;2.93;1.77;;;17.70;99.50;;;;;;5022633;28;20041;-16
2023/07/25 05:45:53;;;;;;;4.18;1.85;;;17.70;99.60;;;;;;5037227;28;20063;-16
2023/07/25 05:48:19;;;;;;;4.93;1.90;;;17.80;99.70;;;;;;5046953;28;20036;-16
2023/07/25 05:50:51;;;;;;;3.33;1.85;;;17.80;99.70;;;;;;5037160;28;20473;-17
2023/07/25 05:53:17;;;;;;;4.13;2.00;;;17.80;99.50;;;;;;5037396;28;20039;-16
2023/07/25 05:55:47;;;;;;;4.05;2.05;;;17.80;99.70;;;;;;5037423;28;20033;-16
2023/07/25 05:58:16;;;;;;;2.30;1.57;;;17.80;99.70;;;;;;5022736;28;20031;-16
2023/07/25 06:00:42;;;;;;;4.07;2.08;;;17.80;99.80;;;;;;5038155;28;20468;-16
2023/07/25 06:03:11;;;;;;;3.67;1.80;;;17.80;99.90;;;;;;5049586;28;20033;-16
2023/07/25 06:05:37;;;;;;;3.53;1.88;;;17.90;99.90;;;;;;5043563;28;20063;-16
2023/07/25 06:08:03;;;;;;;4.20;1.80;;;17.90;99.90;;;;;;5050217;28;20028;-16
2023/07/25 06:10:29;;;;;;;2.95;1.67;;;18.00;99.90;;;;;;5024413;28;20632;-17
2023/07/25 06:12:55;;;;;;;3.88;1.83;;;18.10;99.90;;;;;;5023597;28;20111;-16
2023/07/25 06:15:20;;;;;;;3.43;1.87;;;18.10;99.90;;;;;;5046727;28;20021;-16
2023/07/25 06:17:46;;;;;;;3.42;1.90;;;18.20;99.90;;;;;;5039399;28;20689;-16
2023/07/25 06:20:12;;;;;;;2.87;1.70;;;18.20;99.90;;;;;;5030679;28;20103;-16
2023/07/25 06:22:38;;;;;;;3.50;1.70;;;18.30;99.90;;;;;;5060918;28;20112;-16
2023/07/25 06:25:07;;;;;;;4.28;1.58;;;18.40;99.90;;;;;;5034982;28;20033;-16
2023/07/25 06:27:33;;;;;;;2.80;1.60;;;18.40;99.90;;;;;;5009990;28;20028;-17
2023/07/25 06:30:00;;;;;;;3.08;1.52;;;18.50;99.90;;;;;;5050710;28;20160;-16
2023/07/25 06:32:26;;;;;;;2.88;1.50;;;18.50;99.90;;;;;;5039289;28;20091;-16
2023/07/25 06:34:51;;;;;;;3.67;1.60;;;18.60;99.90;;;;;;5035913;28;20716;-16
2023/07/25 06:37:17;;;;;;;2.33;1.53;;;18.60;99.90;;;;;;5046546;28;20120;-16
2023/07/25 06:39:43;;;;;;;3.35;1.73;;;18.70;99.90;;;;;;5036140;28;20025;-16
2023/07/25 06:42:09;;;;;;;2.50;1.57;;;18.70;99.90;;;;;;5025608;28;20479;-16
2023/07/25 06:44:35;;;;;;;2.25;1.40;;;18.80;99.90;;;;;;5051291;28;20738;-17
2023/07/25 06:47:00;;;;;;;5.03;1.67;;;18.80;99.90;;;;;;5041462;28;20770;-16
2023/07/25 06:49:26;;;;;;;3.43;1.60;;;18.80;99.90;;;;;;5046119;28;20636;-18
2023/07/25 06:51:55;;;;;;;2.50;1.38;;;18.90;99.90;;;;;;5049624;28;20733;-16
2023/07/25 06:54:21;;;;;;;2.87;1.30;;;18.90;99.90;;;;;;5048368;28;20021;-16
2023/07/25 06:56:47;;;;;;;2.05;1.33;;;18.90;99.90;;;;;;5019161;28;21303;-16
2023/07/25 06:59:13;;;;;;;4.10;1.40;;;18.90;99.90;;;;;;5049453;28;20477;-16
2023/07/25 07:01:39;;;;;;;3.22;1.30;;;19.00;99.90;;;;;;5045208;28;20024;-16
2023/07/25 07:04:05;;;;;;;2.97;1.30;;;19.00;99.90;;;;;;5026309;28;20036;-16
2023/07/25 07:06:31;;;;;;;2.13;1.20;;;19.00;99.90;;;;;;5031486;28;20033;-16
2023/07/25 07:08:56;;;;;;;2.60;1.30;;;19.10;99.90;;;;;;5048023;28;20032;-16
2023/07/25 07:11:22;;;;;;;2.70;1.23;;;19.10;99.90;;;;;;5037327;28;20024;-16
2023/07/25 07:13:48;;;;;;;2.25;1.30;;;19.00;99.90;;;;;;5013787;28;21380;-16
2023/07/25 07:16:14;;;;;;;3.80;2.10;;;19.10;99.90;;;;;;5048067;28;20063;-16
2023/07/25 07:18:40;;;;;;;4.47;1.70;;;19.10;99.90;;;;;;5033040;28;20201;-16
2023/07/25 07:21:06;;;;;;;3.28;1.50;;;19.10;99.90;;;;;;5044245;28;20120;-16
2023/07/25 07:23:33;;;;;;;3.05;1.50;;;19.00;99.90;;;;;;5046675;28;20126;-16
2023/07/25 07:25:58;;;;;;;3.50;1.30;;;19.10;99.90;;;;;;5036468;28;20025;-16
2023/07/25 07:28:24;;;;;;;4.13;1.42;;;19.10;99.90;;;;;;5004029;28;20987;-16
2023/07/25 07:30:50;;;;;;;2.70;1.40;;;19.00;99.90;;;;;;5021462;28;20036;-16
2023/07/25 07:33:20;;;;;;;2.78;1.30;;;19.00;99.90;;;;;;5049460;28;20031;-16
2023/07/25 07:35:45;;;;;;;3.92;1.50;;;19.00;99.90;;;;;;5031816;28;20573;-16
2023/07/25 07:38:12;;;;;;;2.27;1.17;;;19.00;99.90;;;;;;5050182;28;20123;-16
2023/07/25 07:40:38;;;;;;;3.80;1.40;;;19.00;99.90;;;;;;5053825;28;20981;-16
2023/07/25 07:43:04;;;;;;;2.75;1.50;;;19.00;99.90;;;;;;5037490;28;20036;-16
2023/07/25 07:45:33;;;;;;;4.32;1.38;;;19.10;99.90;;;;;;5017855;28;20043;-16
2023/07/25 07:48:00;;;;;;;3.10;1.48;;;19.10;99.90;;;;;;5048037;28;20459;-16
2023/07/25 07:50:28;;;;;;;3.37;1.27;;;19.30;99.90;;;;;;5035555;28;20040;-17
2023/07/25 07:52:54;;;;;;;5.82;1.38;;;19.30;99.90;;;;;;5042829;28;20021;-16
2023/07/25 07:55:20;;;;;;;3.58;1.60;;;19.50;99.90;;;;;;5050016;28;20035;-16
2023/07/25 07:57:46;;;;;;;3.47;1.70;;;19.60;99.90;;;;;;5038547;28;20412;-16
2023/07/25 08:00:14;;;;;;;4.07;1.40;;;19.70;99.90;;;;;;5021853;28;20103;-16
2023/07/25 08:02:41;;;;;;;2.20;1.38;;;19.70;99.90;;;;;;5037144;28;20392;-16
2023/07/25 08:05:07;;;;;;;3.45;1.55;;;19.80;99.90;;;;;;5020320;28;20528;-16
2023/07/25 08:07:33;;;;;;;4.47;1.50;;;19.90;99.90;;;;;;5052990;28;20037;-16
2023/07/25 08:09:59;;;;;;;4.70;1.63;;;19.90;99.90;;;;;;5048723;28;20480;-16
2023/07/25 08:12:24;;;;;;;3.47;1.88;;;19.90;99.90;;;;;;5022113;28;20032;-16
2023/07/25 08:14:50;;;;;;;3.27;1.60;;;19.90;99.90;;;;;;5027562;28;20052;-16
2023/07/25 08:17:16;;;;;;;3.85;1.50;;;20.00;99.90;;;;;;5019093;28;20581;-16
2023/07/25 08:19:42;;;;;;;3.20;1.30;;;19.90;99.90;;;;;;5054258;28;20055;-16
2023/07/25 08:22:10;;;;;;;5.33;1.50;;;19.90;99.90;;;;;;5024095;28;20037;-16
2023/07/25 08:24:39;;;;;;;3.42;1.38;;;20.00;99.90;;;;;;5054748;28;20020;-16
2023/07/25 08:27:05;;;;;;;4.05;1.75;;;20.10;99.90;;;;;;5031399;28;20229;-16
2023/07/25 08:29:31;;;;;;;3.78;1.52;;;20.10;99.90;;;;;;5037603;28;20760;-16
2023/07/25 08:31:57;;;;;;;3.40;1.33;;;20.10;99.90;;;;;;5066122;22;20031;-79
2023/07/25 08:34:23;;;;;;;2.40;1.30;;;20.20;99.90;;;;;;5049083;28;20392;-81
2023/07/25 08:36:49;;;;;;;3.03;1.45;;;20.20;99.90;;;;;;5060052;28;20396;-82
2023/07/25 08:39:14;;;;;;;3.40;1.70;;;20.30;99.90;;;;;;5056814;28;20036;-80
2023/07/25 08:41:52;;;;;;;2.40;1.50;;;20.40;99.90;;;;;;5045544;28;20031;-83
2023/07/25 08:44:20;;;;;;;4.07;1.40;;;20.60;99.90;;;;;;5035641;28;20021;-79
2023/07/25 08:46:50;;;;;;;2.50;1.40;;;20.70;99.90;;;;;;5048564;28;20037;-84
2023/07/25 08:49:17;;;;;;;2.13;1.45;;;20.90;99.90;;;;;;5046987;28;20044;-81
2023/07/25 08:51:44;;;;;;;3.42;1.40;;;21.10;99.90;;;;;;5066041;28;20029;-82
2023/07/25 08:54:29;;;;;;;2.88;1.52;;;21.30;99.90;;;;;;5036504;28;20232;-79
2023/07/25 08:57:32;;;;;;;3.23;1.50;;;21.60;99.90;;;;;;5050823;28;20047;-80
2023/07/25 09:03:39;;;;;;;2.17;1.23;;;22.20;99.90;;;;;;5067121;28;20542;-80
2023/07/25 09:06:06;;;;;;;2.60;1.52;;;22.50;99.90;;;;;;5043333;28;20058;-80
2023/07/25 09:08:32;;;;;;;2.38;1.35;;;22.80;99.90;;;;;;5061162;28;20060;-80
2023/07/25 09:10:59;;;;;;;2.93;1.40;;;23.10;99.90;;;;;;5045572;28;20774;-79
2023/07/25 09:13:25;;;;;;;2.30;1.40;;;23.40;99.90;;;;;;5063894;28;20032;-83
2023/07/25 09:15:50;;;;;;;3.22;1.30;;;23.70;99.90;;;;;;5045706;28;20028;-84
2023/07/25 09:18:16;;;;;;;3.60;1.30;;;23.90;99.90;;;;;;5030300;28;20263;-81
2023/07/25 09:20:42;;;;;;;4.13;1.30;;;24.00;99.90;;;;;;5059778;28;20467;-84
2023/07/25 09:23:08;;;;;;;4.32;1.40;;;24.00;99.90;;;;;;5049116;28;20429;-82
2023/07/25 09:25:34;;;;;;;3.00;1.30;;;24.00;99.90;;;;;;5043730;28;20090;-84
2023/07/25 09:27:59;;;;;;;4.38;1.42;;;24.00;99.90;;;;;;5015724;28;20436;-81
2023/07/25 09:30:28;;;;;;;2.40;1.20;;;24.00;99.90;;;;;;5045515;28;20047;-84
2023/07/25 09:32:54;;;;;;;2.85;1.10;;;24.00;99.20;;;;;;5027691;28;25366;-82
2023/07/25 09:35:23;;;;;;;2.00;1.30;;;24.00;99.80;;;;;;5072626;28;20020;-83
2023/07/25 09:37:55;;;;;;;4.78;1.42;;;23.90;99.00;;;;;;5035309;28;20083;-83
2023/07/25 09:40:22;;;;;;;2.30;1.33;;;24.00;98.30;;;;;;5042176;28;20079;-83
2023/07/25 09:42:51;;;;;;;3.20;1.50;;;24.00;99.90;;;;;;5037707;28;20400;-84
2023/07/25 09:45:17;;;;;;;2.72;1.30;;;24.00;99.90;;;;;;5046005;28;20028;-82
2023/07/25 09:47:43;;;;;;;3.10;1.40;;;24.20;99.90;;;;;;5037264;28;20502;-83
2023/07/25 09:50:09;;;;;;;2.37;1.50;;;24.30;99.90;;;;;;5031574;28;20230;-83
2023/07/25 09:52:39;;;;;;;2.85;1.30;;;24.50;99.90;;;;;;5055358;28;20111;-85
2023/07/25 09:55:06;;;;;;;2.92;1.52;;;24.80;99.90;;;;;;5046733;28;20070;-83
2023/07/25 09:57:33;;;;;;;2.78;1.65;;;25.10;99.90;;;;;;5030685;28;20152;-85
2023/07/25 10:00:00;;;;;;;2.70;1.40;;;25.40;99.90;;;;;;5047352;28;20237;-83
2023/07/25 10:02:26;;;;;;;2.83;1.40;;;25.50;99.90;;;;;;5042129;28;20045;-83
2023/07/25 10:04:55;;;;;;;3.75;1.50;;;25.60;99.90;;;;;;4998127;28;20317;-85
2023/07/25 10:07:24;;;;;;;3.85;1.48;;;25.70;99.40;;;;;;5038739;28;20088;-80
2023/07/25 10:09:51;;;;;;;3.53;1.30;;;25.80;99.60;;;;;;5054857;28;20044;-81
2023/07/25 10:12:17;;;;;;;1.98;1.35;;;25.90;99.40;;;;;;5029049;28;20060;-81
2023/07/25 10:14:43;;;;;;;3.23;1.40;;;26.00;99.80;;;;;;5036405;28;20066;-81
2023/07/25 10:17:09;;;;;;;3.08;1.33;;;26.10;99.60;;;;;;5026292;28;20036;-84
2023/07/25 10:19:50;;;;;;;1.83;1.15;;;26.20;98.90;;;;;;5041780;28;20814;-81
2023/07/25 10:22:18;;;;;;;2.13;1.10;;;26.20;95.60;;;;;;5044527;28;20024;-84
2023/07/25 10:24:43;;;;;;;2.85;1.25;;;26.20;97.60;;;;;;5037540;28;20020;-84
2023/07/25 10:27:12;;;;;;;4.22;1.30;;;26.10;97.10;;;;;;5033976;28;20037;-82
2023/07/25 10:29:40;;;;;;;2.42;1.40;;;26.00;95.80;;;;;;5037389;28;20508;-84
2023/07/25 10:32:07;;;;;;;3.63;1.53;;;25.90;96.50;;;;;;5033179;28;20471;-83
2023/07/25 10:34:50;;;;;;;2.38;1.17;;;25.80;96.30;;;;;;5029672;28;20066;-81
2023/07/25 10:37:23;;;;;;;1.88;1.10;;;25.60;93.30;;;;;;5031526;28;20044;-84
2023/07/25 10:40:24;;;;;;;2.58;1.40;;;25.50;94.50;;;;;;5041775;28;20033;-81
2023/07/25 10:42:51;;;;;;;2.97;1.30;;;25.30;92.50;;;;;;5030459;28;20037;-84
2023/07/25 10:45:30;;;;;;;2.47;1.40;;;25.10;95.10;;;;;;5032402;28;20415;-82
2023/07/25 10:47:58;;;;;;;3.70;1.50;;;24.90;93.50;;;;;;5036370;28;20154;-83
2023/07/25 10:50:43;;;;;;;1.70;1.40;;;24.70;95.00;;;;;;5025733;28;20539;-82
2023/07/25 10:53:16;;;;;;;1.70;1.30;;;24.50;94.10;;;;;;5013246;28;20277;-82
2023/07/25 10:56:03;;;;;;;4.35;1.65;;;24.20;93.90;;;;;;5064382;28;20036;-83
2023/07/25 10:58:30;;;;;;;2.50;1.30;;;24.10;93.30;;;;;;5047521;28;20091;-82
2023/07/25 11:00:56;;;;;;;2.30;1.40;;;24.00;96.20;;;;;;5018566;28;20411;-84
2023/07/25 11:03:29;;;;;;;2.70;1.30;;;23.90;96.90;;;;;;5038455;28;20032;-82
2023/07/25 11:06:07;;;;;;;2.42;1.30;;;23.90;96.00;;;;;;5028619;28;20036;-81
2023/07/25 11:08:41;;;;;;;1.85;1.40;;;24.00;95.60;;;;;;5026377;28;20048;-82
2023/07/25 11:11:09;;;;;;;2.37;1.47;;;24.20;98.00;;;;;;5053545;28;20402;-82
2023/07/25 11:13:36;;;;;;;2.55;1.30;;;24.50;99.90;;;;;;5033494;28;20074;-85
2023/07/25 11:16:13;;;;;;;1.30;1.20;;;24.90;99.90;;;;;;5036340;28;20712;-83
2023/07/25 11:18:51;;;;;;;2.20;1.40;;;25.20;99.90;;;;;;5044167;28;20032;-83
2023/07/25 11:21:17;;;;;;;1.75;1.30;;;25.40;96.60;;;;;;5022704;28;20021;-85
2023/07/25 11:23:43;;;;;;;2.53;1.20;;;25.60;99.40;;;;;;4988970;28;20020;-86
2023/07/25 11:26:09;;;;;;;2.00;1.10;;;25.80;99.00;;;;;;5030425;28;20454;-86
2023/07/25 11:28:38;;;;;;;2.00;0.90;;;25.90;98.00;;;;;;5039802;28;20028;-84
2023/07/25 11:31:03;;;;;;;3.90;1.17;;;26.00;96.50;;;;;;5023947;28;20369;-85
2023/07/25 11:33:37;;;;;;;1.27;1.00;;;26.10;97.90;;;;;;5029349;28;20044;-85
2023/07/25 11:36:03;;;;;;;1.77;0.93;;;26.20;96.30;;;;;;5049459;28;21016;-83
2023/07/25 11:38:28;;;;;;;1.73;1.00;;;26.50;99.70;;;;;;5002392;28;20036;-84
2023/07/25 11:40:56;;;;;;;1.53;1.17;;;26.70;99.90;;;;;;5050461;28;20267;-85
2023/07/25 11:43:24;;;;;;;1.85;1.38;;;27.10;99.90;;;;;;5035343;28;20460;-84
2023/07/25 11:45:50;;;;;;;1.80;1.20;;;27.50;99.90;;;;;;5015090;28;20032;-85
2023/07/25 11:48:19;;;;;;;2.50;1.17;;;27.80;99.90;;;;;;5050955;28;20032;-80
2023/07/25 11:50:48;;;;;;;1.42;1.00;;;28.20;98.80;;;;;;5037647;28;20016;-84
2023/07/25 11:53:22;;;;;;;1.65;0.90;;;28.50;98.60;;;;;;5009982;28;20732;-87
2023/07/25 11:55:52;;;;;;;1.27;0.98;;;28.80;96.30;;;;;;5048311;28;20024;-85
2023/07/25 11:58:21;;;;;;;2.10;1.10;;;29.00;98.70;;;;;;5046298;28;20531;-84
2023/07/25 12:00:54;;;;;;;1.60;1.10;;;29.30;96.90;;;;;;5035978;28;20085;-85
2023/07/25 12:03:24;;;;;;;1.75;1.00;;;29.60;96.20;;;;;;5033282;28;20044;-85
2023/07/25 12:05:51;;;;;;;1.90;1.10;;;29.80;96.90;;;;;;5039611;28;20051;-86
2023/07/25 12:08:41;;;;;;;0.85;0.80;;;30.00;96.00;;;;;;4997792;28;20059;-84
2023/07/25 12:11:09;;;;;;;1.77;1.07;;;30.00;91.10;;;;;;5047440;28;20108;-84
2023/07/25 12:13:46;;;;;;;1.20;0.90;;;30.00;95.10;;;;;;5048549;28;20242;-86
2023/07/25 12:16:35;;;;;;;1.27;1.10;;;30.10;93.80;;;;;;5035025;28;20621;-84
2023/07/25 12:19:10;;;;;;;1.48;1.15;;;30.20;92.10;;;;;;5036846;28;20013;-81
2023/07/25 12:21:38;;;;;;;1.70;1.20;;;30.40;94.30;;;;;;5039546;28;20300;-84
2023/07/25 12:24:12;;;;;;;1.53;1.10;;;30.60;95.70;;;;;;5021607;28;20024;-84
2023/07/25 12:26:54;;;;;;;1.92;1.10;;;30.80;92.90;;;;;;5052288;28;20444;-84
2023/07/25 12:29:21;;;;;;;1.30;1.15;;;30.90;91.50;;;;;;5033597;28;20025;-84
2023/07/25 12:31:48;;;;;;;1.50;1.10;;;30.90;93.80;;;;;;5028234;28;20062;-87
2023/07/25 12:34:18;;;;;;;1.48;1.17;;;30.90;93.80;;;;;;5043310;28;20124;-85
2023/07/25 12:36:48;;;;;;;1.30;1.20;;;30.90;94.20;;;;;;5064918;28;20224;-85
2023/07/25 12:39:14;;;;;;;1.95;1.17;;;30.90;92.80;;;;;;5007121;28;20432;-86
2023/07/25 12:41:43;;;;;;;2.13;1.20;;;31.00;94.60;;;;;;5032357;28;20519;-89
2023/07/25 12:44:09;;;;;;;1.50;1.08;;;31.20;94.50;;;;;;5049220;28;20020;-82
2023/07/25 12:46:37;;;;;;;1.58;1.30;;;31.20;93.20;;;;;;5041189;28;20056;-87
2023/07/25 12:49:03;;;;;;;1.20;1.10;;;31.10;92.90;;;;;;5039001;28;20547;-85
2023/07/25 12:51:29;;;;;;;1.83;1.42;;;31.10;93.20;;;;;;5053526;28;20082;-83